sensor_id;sensor_type;location;lat;lon;timestamp;P1;durP1;ratioP1;P2;durP2;ratioP2
68509;SDS011;55512;50.102;19.958;2023-02-12T00:02:08;35.10;;;17.00;;
68509;SDS011;55512;50.102;19.958;2023-02-12T00:04:34;38.80;;;17.60;;
68509;SDS011;55512;50.102;19.958;2023-02-12T00:06:59;25.90;;;12.90;;
68509;SDS011;55512;50.102;19.958;2023-02-12T00:09:25;35.50;;;17.50;;
68509;SDS011;55512;50.102;19.958;2023-02-12T00:11:51;30.20;;;15.10;;
68509;SDS011;55512;50.102;19.958;2023-02-12T00:14:17;31.00;;;14.40;;
68509;SDS011;55512;50.102;19.958;2023-02-12T00:16:43;29.70;;;15.20;;
68509;SDS011;55512;50.102;19.958;2023-02-12T00:19:09;33.70;;;15.20;;
68509;SDS011;55512;50.102;19.958;2023-02-12T00:21:34;37.00;;;17.90;;
68509;SDS011;55512;50.102;19.958;2023-02-12T00:24:01;40.40;;;19.10;;
68509;SDS011;55512;50.102;19.958;2023-02-12T00:26:28;35.50;;;15.20;;
68509;SDS011;55512;50.102;19.958;2023-02-12T00:28:54;40.60;;;18.00;;
68509;SDS011;55512;50.102;19.958;2023-02-12T00:31:25;41.50;;;17.50;;
68509;SDS011;55512;50.102;19.958;2023-02-12T00:33:52;28.70;;;15.10;;
68509;SDS011;55512;50.102;19.958;2023-02-12T00:36:20;33.10;;;16.40;;
68509;SDS011;55512;50.102;19.958;2023-02-12T00:38:50;32.20;;;15.80;;
68509;SDS011;55512;50.102;19.958;2023-02-12T00:41:17;34.00;;;16.60;;
68509;SDS011;55512;50.102;19.958;2023-02-12T00:43:43;24.30;;;10.80;;
68509;SDS011;55512;50.102;19.958;2023-02-12T00:46:09;26.10;;;13.00;;
68509;SDS011;55512;50.102;19.958;2023-02-12T00:48:35;31.00;;;14.50;;
68509;SDS011;55512;50.102;19.958;2023-02-12T00:51:02;33.10;;;15.60;;
68509;SDS011;55512;50.102;19.958;2023-02-12T00:53:29;32.10;;;16.30;;
68509;SDS011;55512;50.102;19.958;2023-02-12T00:55:55;35.20;;;16.20;;
68509;SDS011;55512;50.102;19.958;2023-02-12T00:58:20;37.90;;;18.00;;
68509;SDS011;55512;50.102;19.958;2023-02-12T01:00:46;31.10;;;14.40;;
68509;SDS011;55512;50.102;19.958;2023-02-12T01:03:12;30.40;;;16.30;;
68509;SDS011;55512;50.102;19.958;2023-02-12T01:05:37;32.60;;;15.40;;
68509;SDS011;55512;50.102;19.958;2023-02-12T01:08:03;36.00;;;17.70;;
68509;SDS011;55512;50.102;19.958;2023-02-12T01:10:29;27.90;;;14.50;;
68509;SDS011;55512;50.102;19.958;2023-02-12T01:12:55;34.20;;;15.80;;
68509;SDS011;55512;50.102;19.958;2023-02-12T01:15:21;34.40;;;16.10;;
68509;SDS011;55512;50.102;19.958;2023-02-12T01:17:47;28.20;;;14.30;;
68509;SDS011;55512;50.102;19.958;2023-02-12T01:20:16;33.00;;;16.10;;
68509;SDS011;55512;50.102;19.958;2023-02-12T01:22:43;32.40;;;15.20;;
68509;SDS011;55512;50.102;19.958;2023-02-12T01:25:08;25.90;;;12.30;;
68509;SDS011;55512;50.102;19.958;2023-02-12T01:27:35;30.80;;;15.20;;
68509;SDS011;55512;50.102;19.958;2023-02-12T01:30:01;28.20;;;13.10;;
68509;SDS011;55512;50.102;19.958;2023-02-12T01:32:27;29.00;;;13.90;;
68509;SDS011;55512;50.102;19.958;2023-02-12T01:34:52;25.40;;;13.30;;
68509;SDS011;55512;50.102;19.958;2023-02-12T01:37:18;28.90;;;14.70;;
68509;SDS011;55512;50.102;19.958;2023-02-12T01:39:43;28.10;;;14.40;;
68509;SDS011;55512;50.102;19.958;2023-02-12T01:42:11;24.80;;;12.30;;
68509;SDS011;55512;50.102;19.958;2023-02-12T01:47:43;28.60;;;14.00;;
68509;SDS011;55512;50.102;19.958;2023-02-12T01:50:12;28.10;;;13.60;;
68509;SDS011;55512;50.102;19.958;2023-02-12T01:52:47;26.00;;;13.40;;
68509;SDS011;55512;50.102;19.958;2023-02-12T01:55:18;26.50;;;12.90;;
68509;SDS011;55512;50.102;19.958;2023-02-12T01:57:46;26.70;;;12.90;;
68509;SDS011;55512;50.102;19.958;2023-02-12T02:00:19;26.20;;;12.30;;
68509;SDS011;55512;50.102;19.958;2023-02-12T02:02:50;20.70;;;10.60;;
68509;SDS011;55512;50.102;19.958;2023-02-12T02:05:30;25.00;;;13.10;;
68509;SDS011;55512;50.102;19.958;2023-02-12T02:08:02;22.90;;;11.80;;
68509;SDS011;55512;50.102;19.958;2023-02-12T02:10:29;22.00;;;10.80;;
68509;SDS011;55512;50.102;19.958;2023-02-12T02:12:55;23.50;;;12.50;;
68509;SDS011;55512;50.102;19.958;2023-02-12T02:15:43;21.80;;;11.70;;
68509;SDS011;55512;50.102;19.958;2023-02-12T02:27:37;25.70;;;10.60;;
68509;SDS011;55512;50.102;19.958;2023-02-12T02:30:46;28.90;;;14.20;;
68509;SDS011;55512;50.102;19.958;2023-02-12T02:36:45;26.90;;;13.00;;
68509;SDS011;55512;50.102;19.958;2023-02-12T02:39:23;23.30;;;12.00;;
68509;SDS011;55512;50.102;19.958;2023-02-12T02:41:58;25.70;;;12.50;;
68509;SDS011;55512;50.102;19.958;2023-02-12T02:44:34;27.50;;;12.50;;
68509;SDS011;55512;50.102;19.958;2023-02-12T02:47:06;24.40;;;12.60;;
68509;SDS011;55512;50.102;19.958;2023-02-12T02:49:41;21.40;;;11.20;;
68509;SDS011;55512;50.102;19.958;2023-02-12T02:52:17;27.40;;;13.30;;
68509;SDS011;55512;50.102;19.958;2023-02-12T02:54:52;25.50;;;12.10;;
68509;SDS011;55512;50.102;19.958;2023-02-12T02:57:25;22.60;;;11.40;;
68509;SDS011;55512;50.102;19.958;2023-02-12T02:59:59;20.30;;;9.90;;
68509;SDS011;55512;50.102;19.958;2023-02-12T03:02:35;22.60;;;12.00;;
68509;SDS011;55512;50.102;19.958;2023-02-12T03:05:15;24.40;;;12.40;;
68509;SDS011;55512;50.102;19.958;2023-02-12T03:07:45;23.10;;;12.80;;
68509;SDS011;55512;50.102;19.958;2023-02-12T03:10:18;24.20;;;12.10;;
68509;SDS011;55512;50.102;19.958;2023-02-12T03:12:53;27.60;;;12.20;;
68509;SDS011;55512;50.102;19.958;2023-02-12T03:15:45;24.90;;;12.90;;
68509;SDS011;55512;50.102;19.958;2023-02-12T03:18:42;25.20;;;12.50;;
68509;SDS011;55512;50.102;19.958;2023-02-12T03:21:17;27.60;;;12.60;;
68509;SDS011;55512;50.102;19.958;2023-02-12T03:23:51;24.10;;;13.00;;
68509;SDS011;55512;50.102;19.958;2023-02-12T03:26:37;24.00;;;11.80;;
68509;SDS011;55512;50.102;19.958;2023-02-12T03:29:03;20.20;;;10.20;;
68509;SDS011;55512;50.102;19.958;2023-02-12T03:34:29;23.60;;;12.10;;
68509;SDS011;55512;50.102;19.958;2023-02-12T03:37:04;23.10;;;11.70;;
68509;SDS011;55512;50.102;19.958;2023-02-12T03:42:13;19.40;;;10.00;;
68509;SDS011;55512;50.102;19.958;2023-02-12T03:44:53;17.00;;;8.90;;
68509;SDS011;55512;50.102;19.958;2023-02-12T03:47:43;19.00;;;10.00;;
68509;SDS011;55512;50.102;19.958;2023-02-12T03:50:28;17.10;;;8.60;;
68509;SDS011;55512;50.102;19.958;2023-02-12T03:53:03;14.50;;;7.40;;
68509;SDS011;55512;50.102;19.958;2023-02-12T03:55:31;13.50;;;7.60;;
68509;SDS011;55512;50.102;19.958;2023-02-12T03:58:02;14.20;;;7.90;;
68509;SDS011;55512;50.102;19.958;2023-02-12T04:00:28;16.50;;;7.90;;
68509;SDS011;55512;50.102;19.958;2023-02-12T04:02:54;15.00;;;8.00;;
68509;SDS011;55512;50.102;19.958;2023-02-12T04:05:23;14.20;;;8.00;;
68509;SDS011;55512;50.102;19.958;2023-02-12T04:07:51;17.00;;;7.80;;
68509;SDS011;55512;50.102;19.958;2023-02-12T04:10:21;16.90;;;6.80;;
68509;SDS011;55512;50.102;19.958;2023-02-12T04:13:25;13.80;;;6.80;;
68509;SDS011;55512;50.102;19.958;2023-02-12T04:18:45;12.70;;;6.50;;
68509;SDS011;55512;50.102;19.958;2023-02-12T04:29:41;10.70;;;4.60;;
68509;SDS011;55512;50.102;19.958;2023-02-12T04:32:24;10.80;;;5.80;;
68509;SDS011;55512;50.102;19.958;2023-02-12T04:37:51;9.90;;;3.60;;
68509;SDS011;55512;50.102;19.958;2023-02-12T04:40:21;11.50;;;5.60;;
68509;SDS011;55512;50.102;19.958;2023-02-12T04:42:50;11.30;;;5.80;;
68509;SDS011;55512;50.102;19.958;2023-02-12T04:45:25;15.30;;;5.70;;
68509;SDS011;55512;50.102;19.958;2023-02-12T04:47:53;13.20;;;4.90;;
68509;SDS011;55512;50.102;19.958;2023-02-12T04:50:19;13.00;;;5.60;;
68509;SDS011;55512;50.102;19.958;2023-02-12T04:52:44;12.40;;;5.40;;
68509;SDS011;55512;50.102;19.958;2023-02-12T04:55:10;11.70;;;5.50;;
68509;SDS011;55512;50.102;19.958;2023-02-12T04:57:36;13.60;;;5.50;;
68509;SDS011;55512;50.102;19.958;2023-02-12T05:00:04;12.80;;;4.60;;
68509;SDS011;55512;50.102;19.958;2023-02-12T05:02:32;9.90;;;4.30;;
68509;SDS011;55512;50.102;19.958;2023-02-12T05:04:58;10.20;;;4.40;;
68509;SDS011;55512;50.102;19.958;2023-02-12T05:07:24;15.90;;;6.50;;
68509;SDS011;55512;50.102;19.958;2023-02-12T05:09:49;14.20;;;6.50;;
68509;SDS011;55512;50.102;19.958;2023-02-12T05:12:15;13.00;;;6.60;;
68509;SDS011;55512;50.102;19.958;2023-02-12T05:14:40;14.00;;;5.80;;
68509;SDS011;55512;50.102;19.958;2023-02-12T05:17:06;13.10;;;6.10;;
68509;SDS011;55512;50.102;19.958;2023-02-12T05:19:31;10.70;;;5.50;;
68509;SDS011;55512;50.102;19.958;2023-02-12T05:21:57;10.90;;;5.10;;
68509;SDS011;55512;50.102;19.958;2023-02-12T05:24:22;11.60;;;5.10;;
68509;SDS011;55512;50.102;19.958;2023-02-12T05:26:49;10.60;;;5.10;;
68509;SDS011;55512;50.102;19.958;2023-02-12T05:29:14;12.10;;;5.60;;
68509;SDS011;55512;50.102;19.958;2023-02-12T05:31:40;13.90;;;5.60;;
68509;SDS011;55512;50.102;19.958;2023-02-12T05:34:08;12.20;;;4.50;;
68509;SDS011;55512;50.102;19.958;2023-02-12T05:36:36;11.00;;;5.60;;
68509;SDS011;55512;50.102;19.958;2023-02-12T05:39:04;10.40;;;4.90;;
68509;SDS011;55512;50.102;19.958;2023-02-12T05:41:31;9.10;;;4.20;;
68509;SDS011;55512;50.102;19.958;2023-02-12T05:44:01;11.20;;;4.20;;
68509;SDS011;55512;50.102;19.958;2023-02-12T05:46:27;7.90;;;3.00;;
68509;SDS011;55512;50.102;19.958;2023-02-12T05:48:53;10.20;;;3.90;;
68509;SDS011;55512;50.102;19.958;2023-02-12T05:51:24;12.10;;;5.00;;
68509;SDS011;55512;50.102;19.958;2023-02-12T05:53:55;12.90;;;4.80;;
68509;SDS011;55512;50.102;19.958;2023-02-12T05:56:24;8.10;;;3.10;;
68509;SDS011;55512;50.102;19.958;2023-02-12T05:58:57;8.50;;;3.10;;
68509;SDS011;55512;50.102;19.958;2023-02-12T06:01:39;9.30;;;3.50;;
68509;SDS011;55512;50.102;19.958;2023-02-12T06:04:09;12.00;;;3.70;;
68509;SDS011;55512;50.102;19.958;2023-02-12T06:06:39;9.90;;;4.10;;
68509;SDS011;55512;50.102;19.958;2023-02-12T06:09:07;10.70;;;3.90;;
68509;SDS011;55512;50.102;19.958;2023-02-12T06:11:34;11.00;;;4.10;;
68509;SDS011;55512;50.102;19.958;2023-02-12T06:14:04;9.10;;;2.30;;
68509;SDS011;55512;50.102;19.958;2023-02-12T06:16:31;8.60;;;3.20;;
68509;SDS011;55512;50.102;19.958;2023-02-12T06:18:57;10.90;;;5.30;;
68509;SDS011;55512;50.102;19.958;2023-02-12T06:21:25;13.30;;;5.10;;
68509;SDS011;55512;50.102;19.958;2023-02-12T06:23:51;7.50;;;3.20;;
68509;SDS011;55512;50.102;19.958;2023-02-12T06:26:18;10.00;;;4.50;;
68509;SDS011;55512;50.102;19.958;2023-02-12T06:28:44;9.30;;;3.30;;
68509;SDS011;55512;50.102;19.958;2023-02-12T06:31:17;12.40;;;5.20;;
68509;SDS011;55512;50.102;19.958;2023-02-12T06:33:43;10.70;;;4.10;;
68509;SDS011;55512;50.102;19.958;2023-02-12T06:36:09;9.60;;;3.80;;
68509;SDS011;55512;50.102;19.958;2023-02-12T06:38:34;7.70;;;4.10;;
68509;SDS011;55512;50.102;19.958;2023-02-12T06:41:01;10.40;;;4.40;;
68509;SDS011;55512;50.102;19.958;2023-02-12T06:43:27;9.40;;;4.30;;
68509;SDS011;55512;50.102;19.958;2023-02-12T06:45:52;8.00;;;3.30;;
68509;SDS011;55512;50.102;19.958;2023-02-12T06:48:18;8.20;;;3.10;;
68509;SDS011;55512;50.102;19.958;2023-02-12T06:50:43;10.40;;;3.20;;
68509;SDS011;55512;50.102;19.958;2023-02-12T06:53:09;8.00;;;3.50;;
68509;SDS011;55512;50.102;19.958;2023-02-12T06:55:34;8.40;;;3.30;;
68509;SDS011;55512;50.102;19.958;2023-02-12T06:58:00;7.30;;;2.70;;
68509;SDS011;55512;50.102;19.958;2023-02-12T07:00:25;8.20;;;3.30;;
68509;SDS011;55512;50.102;19.958;2023-02-12T07:02:52;9.00;;;3.70;;
68509;SDS011;55512;50.102;19.958;2023-02-12T07:05:19;6.40;;;2.80;;
68509;SDS011;55512;50.102;19.958;2023-02-12T07:07:45;9.90;;;3.40;;
68509;SDS011;55512;50.102;19.958;2023-02-12T07:10:10;6.70;;;2.60;;
68509;SDS011;55512;50.102;19.958;2023-02-12T07:12:35;9.70;;;3.80;;
68509;SDS011;55512;50.102;19.958;2023-02-12T07:15:01;7.10;;;2.80;;
68509;SDS011;55512;50.102;19.958;2023-02-12T07:17:28;8.90;;;2.90;;
68509;SDS011;55512;50.102;19.958;2023-02-12T07:19:55;8.40;;;3.70;;
68509;SDS011;55512;50.102;19.958;2023-02-12T07:22:20;7.40;;;3.30;;
68509;SDS011;55512;50.102;19.958;2023-02-12T07:24:46;6.80;;;2.70;;
68509;SDS011;55512;50.102;19.958;2023-02-12T07:27:13;6.70;;;3.30;;
68509;SDS011;55512;50.102;19.958;2023-02-12T07:29:38;6.70;;;2.80;;
68509;SDS011;55512;50.102;19.958;2023-02-12T07:32:04;6.50;;;2.60;;
68509;SDS011;55512;50.102;19.958;2023-02-12T07:34:30;6.60;;;2.70;;
68509;SDS011;55512;50.102;19.958;2023-02-12T07:36:55;6.20;;;2.30;;
68509;SDS011;55512;50.102;19.958;2023-02-12T07:39:21;6.00;;;2.90;;
68509;SDS011;55512;50.102;19.958;2023-02-12T07:41:46;7.10;;;2.40;;
68509;SDS011;55512;50.102;19.958;2023-02-12T07:44:12;7.50;;;2.40;;
68509;SDS011;55512;50.102;19.958;2023-02-12T07:46:47;7.00;;;3.20;;
68509;SDS011;55512;50.102;19.958;2023-02-12T07:49:18;5.80;;;2.70;;
68509;SDS011;55512;50.102;19.958;2023-02-12T07:51:46;6.90;;;2.50;;
68509;SDS011;55512;50.102;19.958;2023-02-12T07:54:13;5.70;;;2.70;;
68509;SDS011;55512;50.102;19.958;2023-02-12T07:56:41;6.60;;;2.60;;
68509;SDS011;55512;50.102;19.958;2023-02-12T07:59:10;6.90;;;3.20;;
68509;SDS011;55512;50.102;19.958;2023-02-12T08:01:38;6.60;;;3.00;;
68509;SDS011;55512;50.102;19.958;2023-02-12T08:04:09;8.00;;;3.30;;
68509;SDS011;55512;50.102;19.958;2023-02-12T08:06:41;6.40;;;2.70;;
68509;SDS011;55512;50.102;19.958;2023-02-12T08:09:11;5.10;;;2.20;;
68509;SDS011;55512;50.102;19.958;2023-02-12T08:11:40;5.90;;;2.60;;
68509;SDS011;55512;50.102;19.958;2023-02-12T08:14:06;5.50;;;2.50;;
68509;SDS011;55512;50.102;19.958;2023-02-12T08:16:38;6.80;;;2.90;;
68509;SDS011;55512;50.102;19.958;2023-02-12T08:19:04;8.30;;;3.30;;
68509;SDS011;55512;50.102;19.958;2023-02-12T08:21:31;8.10;;;3.00;;
68509;SDS011;55512;50.102;19.958;2023-02-12T08:23:57;7.60;;;4.10;;
68509;SDS011;55512;50.102;19.958;2023-02-12T08:26:34;5.40;;;2.10;;
68509;SDS011;55512;50.102;19.958;2023-02-12T08:29:03;6.10;;;2.20;;
68509;SDS011;55512;50.102;19.958;2023-02-12T08:31:33;6.60;;;2.70;;
68509;SDS011;55512;50.102;19.958;2023-02-12T08:34:04;5.10;;;2.10;;
68509;SDS011;55512;50.102;19.958;2023-02-12T08:36:38;7.70;;;3.10;;
68509;SDS011;55512;50.102;19.958;2023-02-12T08:39:05;6.30;;;2.60;;
68509;SDS011;55512;50.102;19.958;2023-02-12T08:41:32;4.70;;;2.10;;
68509;SDS011;55512;50.102;19.958;2023-02-12T08:44:00;4.20;;;1.60;;
68509;SDS011;55512;50.102;19.958;2023-02-12T08:46:32;5.90;;;2.30;;
68509;SDS011;55512;50.102;19.958;2023-02-12T08:49:02;6.40;;;2.30;;
68509;SDS011;55512;50.102;19.958;2023-02-12T08:51:46;6.50;;;1.90;;
68509;SDS011;55512;50.102;19.958;2023-02-12T08:54:16;6.80;;;1.70;;
68509;SDS011;55512;50.102;19.958;2023-02-12T08:56:46;4.90;;;2.00;;
68509;SDS011;55512;50.102;19.958;2023-02-12T08:59:13;6.30;;;1.90;;
68509;SDS011;55512;50.102;19.958;2023-02-12T09:01:40;4.40;;;1.50;;
68509;SDS011;55512;50.102;19.958;2023-02-12T09:04:13;4.60;;;1.50;;
68509;SDS011;55512;50.102;19.958;2023-02-12T09:06:42;4.40;;;1.30;;
68509;SDS011;55512;50.102;19.958;2023-02-12T09:09:08;5.60;;;1.70;;
68509;SDS011;55512;50.102;19.958;2023-02-12T09:11:34;6.10;;;2.00;;
68509;SDS011;55512;50.102;19.958;2023-02-12T09:14:01;6.20;;;2.50;;
68509;SDS011;55512;50.102;19.958;2023-02-12T09:16:34;7.80;;;3.10;;
68509;SDS011;55512;50.102;19.958;2023-02-12T09:19:01;5.20;;;1.90;;
68509;SDS011;55512;50.102;19.958;2023-02-12T09:21:28;5.40;;;2.00;;
68509;SDS011;55512;50.102;19.958;2023-02-12T09:23:54;4.40;;;2.10;;
68509;SDS011;55512;50.102;19.958;2023-02-12T09:26:22;5.40;;;2.20;;
68509;SDS011;55512;50.102;19.958;2023-02-12T09:28:52;5.40;;;1.90;;
68509;SDS011;55512;50.102;19.958;2023-02-12T09:31:24;5.90;;;2.50;;
68509;SDS011;55512;50.102;19.958;2023-02-12T09:33:53;4.80;;;2.10;;
68509;SDS011;55512;50.102;19.958;2023-02-12T09:36:22;7.70;;;2.50;;
68509;SDS011;55512;50.102;19.958;2023-02-12T09:38:47;7.40;;;2.70;;
68509;SDS011;55512;50.102;19.958;2023-02-12T09:44:28;5.30;;;2.10;;
68509;SDS011;55512;50.102;19.958;2023-02-12T09:53:05;8.00;;;2.60;;
68509;SDS011;55512;50.102;19.958;2023-02-12T09:55:32;6.30;;;2.50;;
68509;SDS011;55512;50.102;19.958;2023-02-12T09:58:06;6.40;;;2.20;;
68509;SDS011;55512;50.102;19.958;2023-02-12T10:00:38;6.50;;;2.50;;
68509;SDS011;55512;50.102;19.958;2023-02-12T10:03:11;5.80;;;2.20;;
68509;SDS011;55512;50.102;19.958;2023-02-12T10:05:45;6.80;;;2.80;;
68509;SDS011;55512;50.102;19.958;2023-02-12T10:17:34;6.30;;;2.50;;
68509;SDS011;55512;50.102;19.958;2023-02-12T10:20:39;5.70;;;2.10;;
68509;SDS011;55512;50.102;19.958;2023-02-12T10:26:18;4.50;;;1.80;;
68509;SDS011;55512;50.102;19.958;2023-02-12T10:28:50;4.80;;;1.40;;
68509;SDS011;55512;50.102;19.958;2023-02-12T10:31:36;7.20;;;2.40;;
68509;SDS011;55512;50.102;19.958;2023-02-12T10:34:25;5.50;;;2.20;;
68509;SDS011;55512;50.102;19.958;2023-02-12T10:37:09;6.80;;;2.80;;
68509;SDS011;55512;50.102;19.958;2023-02-12T10:39:41;6.10;;;2.00;;
68509;SDS011;55512;50.102;19.958;2023-02-12T10:42:46;5.70;;;2.40;;
68509;SDS011;55512;50.102;19.958;2023-02-12T10:45:15;5.90;;;2.00;;
68509;SDS011;55512;50.102;19.958;2023-02-12T10:47:48;5.40;;;2.40;;
68509;SDS011;55512;50.102;19.958;2023-02-12T10:50:30;6.20;;;2.40;;
68509;SDS011;55512;50.102;19.958;2023-02-12T10:53:03;4.30;;;2.00;;
68509;SDS011;55512;50.102;19.958;2023-02-12T10:55:33;6.40;;;2.50;;
68509;SDS011;55512;50.102;19.958;2023-02-12T10:58:03;7.00;;;2.50;;
68509;SDS011;55512;50.102;19.958;2023-02-12T11:00:30;7.00;;;3.00;;
68509;SDS011;55512;50.102;19.958;2023-02-12T11:03:17;5.20;;;2.30;;
68509;SDS011;55512;50.102;19.958;2023-02-12T11:05:46;7.00;;;2.80;;
68509;SDS011;55512;50.102;19.958;2023-02-12T11:08:33;5.80;;;2.00;;
68509;SDS011;55512;50.102;19.958;2023-02-12T11:11:12;5.80;;;2.30;;
68509;SDS011;55512;50.102;19.958;2023-02-12T11:13:51;6.40;;;2.90;;
68509;SDS011;55512;50.102;19.958;2023-02-12T11:19:05;8.20;;;2.80;;
68509;SDS011;55512;50.102;19.958;2023-02-12T11:21:33;6.40;;;2.90;;
68509;SDS011;55512;50.102;19.958;2023-02-12T11:24:21;6.30;;;2.50;;
68509;SDS011;55512;50.102;19.958;2023-02-12T11:26:49;9.80;;;3.30;;
68509;SDS011;55512;50.102;19.958;2023-02-12T11:29:22;7.00;;;2.80;;
68509;SDS011;55512;50.102;19.958;2023-02-12T11:32:06;7.10;;;2.70;;
68509;SDS011;55512;50.102;19.958;2023-02-12T11:34:35;6.90;;;3.00;;
68509;SDS011;55512;50.102;19.958;2023-02-12T11:37:02;7.60;;;3.10;;
68509;SDS011;55512;50.102;19.958;2023-02-12T11:39:32;7.00;;;3.20;;
68509;SDS011;55512;50.102;19.958;2023-02-12T11:42:24;5.80;;;2.80;;
68509;SDS011;55512;50.102;19.958;2023-02-12T11:44:56;6.20;;;2.20;;
68509;SDS011;55512;50.102;19.958;2023-02-12T11:47:26;7.90;;;3.40;;
68509;SDS011;55512;50.102;19.958;2023-02-12T11:50:02;6.30;;;3.10;;
68509;SDS011;55512;50.102;19.958;2023-02-12T11:52:35;9.20;;;4.10;;
68509;SDS011;55512;50.102;19.958;2023-02-12T11:55:24;8.20;;;3.50;;
68509;SDS011;55512;50.102;19.958;2023-02-12T11:58:00;7.90;;;3.20;;
68509;SDS011;55512;50.102;19.958;2023-02-12T12:00:32;8.10;;;3.80;;
68509;SDS011;55512;50.102;19.958;2023-02-12T12:03:14;5.60;;;2.10;;
68509;SDS011;55512;50.102;19.958;2023-02-12T12:05:51;7.20;;;3.50;;
68509;SDS011;55512;50.102;19.958;2023-02-12T12:08:28;8.60;;;3.60;;
68509;SDS011;55512;50.102;19.958;2023-02-12T12:11:13;8.50;;;4.00;;
68509;SDS011;55512;50.102;19.958;2023-02-12T12:13:52;7.10;;;3.70;;
68509;SDS011;55512;50.102;19.958;2023-02-12T12:19:55;7.80;;;3.70;;
68509;SDS011;55512;50.102;19.958;2023-02-12T12:25:42;8.00;;;3.50;;
68509;SDS011;55512;50.102;19.958;2023-02-12T12:31:09;9.60;;;4.20;;
68509;SDS011;55512;50.102;19.958;2023-02-12T12:34:02;7.70;;;3.50;;
68509;SDS011;55512;50.102;19.958;2023-02-12T12:42:54;7.20;;;3.20;;
68509;SDS011;55512;50.102;19.958;2023-02-12T12:45:53;9.60;;;5.00;;
68509;SDS011;55512;50.102;19.958;2023-02-12T12:48:51;7.40;;;3.00;;
68509;SDS011;55512;50.102;19.958;2023-02-12T12:51:53;7.10;;;2.90;;
68509;SDS011;55512;50.102;19.958;2023-02-12T12:57:38;8.20;;;3.60;;
68509;SDS011;55512;50.102;19.958;2023-02-12T13:14:59;9.00;;;4.50;;
68509;SDS011;55512;50.102;19.958;2023-02-12T13:17:39;8.50;;;4.50;;
68509;SDS011;55512;50.102;19.958;2023-02-12T13:20:50;8.30;;;4.10;;
68509;SDS011;55512;50.102;19.958;2023-02-12T13:26:34;9.50;;;3.80;;
68509;SDS011;55512;50.102;19.958;2023-02-12T13:29:41;10.40;;;4.50;;
68509;SDS011;55512;50.102;19.958;2023-02-12T13:32:18;11.00;;;5.00;;
68509;SDS011;55512;50.102;19.958;2023-02-12T13:34:49;11.00;;;4.40;;
68509;SDS011;55512;50.102;19.958;2023-02-12T13:37:20;9.60;;;5.00;;
68509;SDS011;55512;50.102;19.958;2023-02-12T13:39:59;7.30;;;2.90;;
68509;SDS011;55512;50.102;19.958;2023-02-12T13:42:47;10.20;;;5.40;;
68509;SDS011;55512;50.102;19.958;2023-02-12T13:57:02;10.90;;;5.40;;
68509;SDS011;55512;50.102;19.958;2023-02-12T14:02:05;11.20;;;5.50;;
68509;SDS011;55512;50.102;19.958;2023-02-12T14:04:45;10.50;;;5.10;;
68509;SDS011;55512;50.102;19.958;2023-02-12T14:07:19;9.50;;;5.20;;
68509;SDS011;55512;50.102;19.958;2023-02-12T14:12:26;12.60;;;4.90;;
68509;SDS011;55512;50.102;19.958;2023-02-12T14:15:04;10.60;;;5.10;;
68509;SDS011;55512;50.102;19.958;2023-02-12T14:28:22;9.10;;;4.10;;
68509;SDS011;55512;50.102;19.958;2023-02-12T14:33:45;10.40;;;6.20;;
68509;SDS011;55512;50.102;19.958;2023-02-12T14:49:21;11.70;;;6.80;;
68509;SDS011;55512;50.102;19.958;2023-02-12T14:52:02;12.40;;;7.40;;
68509;SDS011;55512;50.102;19.958;2023-02-12T14:54:40;10.90;;;7.30;;
68509;SDS011;55512;50.102;19.958;2023-02-12T14:59:53;10.50;;;6.00;;
68509;SDS011;55512;50.102;19.958;2023-02-12T15:02:26;11.50;;;6.30;;
68509;SDS011;55512;50.102;19.958;2023-02-12T15:05:04;12.00;;;7.20;;
68509;SDS011;55512;50.102;19.958;2023-02-12T15:07:49;10.00;;;6.80;;
68509;SDS011;55512;50.102;19.958;2023-02-12T15:10:26;10.70;;;6.70;;
68509;SDS011;55512;50.102;19.958;2023-02-12T15:13:16;10.30;;;7.00;;
68509;SDS011;55512;50.102;19.958;2023-02-12T15:15:51;10.10;;;6.60;;
68509;SDS011;55512;50.102;19.958;2023-02-12T15:21:05;10.20;;;7.10;;
68509;SDS011;55512;50.102;19.958;2023-02-12T15:23:44;11.40;;;7.20;;
68509;SDS011;55512;50.102;19.958;2023-02-12T15:26:13;12.60;;;7.50;;
68509;SDS011;55512;50.102;19.958;2023-02-12T15:28:41;11.10;;;7.00;;
68509;SDS011;55512;50.102;19.958;2023-02-12T15:31:14;9.70;;;6.80;;
68509;SDS011;55512;50.102;19.958;2023-02-12T15:33:46;11.60;;;6.40;;
68509;SDS011;55512;50.102;19.958;2023-02-12T15:36:20;11.70;;;6.60;;
68509;SDS011;55512;50.102;19.958;2023-02-12T15:38:52;10.10;;;6.50;;
68509;SDS011;55512;50.102;19.958;2023-02-12T15:43:58;11.30;;;6.60;;
68509;SDS011;55512;50.102;19.958;2023-02-12T15:46:26;11.30;;;6.30;;
68509;SDS011;55512;50.102;19.958;2023-02-12T15:48:52;11.30;;;5.90;;
68509;SDS011;55512;50.102;19.958;2023-02-12T15:51:29;12.10;;;6.80;;
68509;SDS011;55512;50.102;19.958;2023-02-12T15:54:02;12.40;;;6.20;;
68509;SDS011;55512;50.102;19.958;2023-02-12T15:56:31;10.80;;;6.40;;
68509;SDS011;55512;50.102;19.958;2023-02-12T15:59:01;13.20;;;6.60;;
68509;SDS011;55512;50.102;19.958;2023-02-12T16:01:33;13.70;;;7.60;;
68509;SDS011;55512;50.102;19.958;2023-02-12T16:04:04;12.80;;;6.80;;
68509;SDS011;55512;50.102;19.958;2023-02-12T16:06:33;16.40;;;8.20;;
68509;SDS011;55512;50.102;19.958;2023-02-12T16:09:05;13.80;;;8.80;;
68509;SDS011;55512;50.102;19.958;2023-02-12T16:11:34;14.50;;;6.70;;
68509;SDS011;55512;50.102;19.958;2023-02-12T16:14:12;17.50;;;6.30;;
68509;SDS011;55512;50.102;19.958;2023-02-12T16:16:49;12.90;;;6.70;;
68509;SDS011;55512;50.102;19.958;2023-02-12T16:21:50;10.70;;;4.60;;
68509;SDS011;55512;50.102;19.958;2023-02-12T16:24:38;13.90;;;6.20;;
68509;SDS011;55512;50.102;19.958;2023-02-12T16:27:18;14.70;;;7.10;;
68509;SDS011;55512;50.102;19.958;2023-02-12T16:29:57;15.10;;;6.60;;
68509;SDS011;55512;50.102;19.958;2023-02-12T16:32:42;13.50;;;4.70;;
68509;SDS011;55512;50.102;19.958;2023-02-12T16:42:37;13.70;;;6.90;;
68509;SDS011;55512;50.102;19.958;2023-02-12T16:47:48;13.10;;;6.20;;
68509;SDS011;55512;50.102;19.958;2023-02-12T16:50:26;15.30;;;7.20;;
68509;SDS011;55512;50.102;19.958;2023-02-12T16:53:06;17.70;;;6.60;;
68509;SDS011;55512;50.102;19.958;2023-02-12T16:55:47;13.50;;;6.80;;
68509;SDS011;55512;50.102;19.958;2023-02-12T16:58:13;15.10;;;6.30;;
68509;SDS011;55512;50.102;19.958;2023-02-12T17:00:38;17.10;;;8.00;;
68509;SDS011;55512;50.102;19.958;2023-02-12T17:03:04;15.60;;;6.70;;
68509;SDS011;55512;50.102;19.958;2023-02-12T17:05:29;16.30;;;6.80;;
68509;SDS011;55512;50.102;19.958;2023-02-12T17:07:55;13.80;;;5.40;;
68509;SDS011;55512;50.102;19.958;2023-02-12T17:10:20;11.90;;;5.60;;
68509;SDS011;55512;50.102;19.958;2023-02-12T17:12:49;12.70;;;5.40;;
68509;SDS011;55512;50.102;19.958;2023-02-12T17:15:32;14.00;;;6.30;;
68509;SDS011;55512;50.102;19.958;2023-02-12T17:18:03;12.10;;;5.30;;
68509;SDS011;55512;50.102;19.958;2023-02-12T17:20:28;15.90;;;5.20;;
68509;SDS011;55512;50.102;19.958;2023-02-12T17:22:55;9.30;;;4.10;;
68509;SDS011;55512;50.102;19.958;2023-02-12T17:25:23;10.70;;;4.30;;
68509;SDS011;55512;50.102;19.958;2023-02-12T17:27:49;10.70;;;4.80;;
68509;SDS011;55512;50.102;19.958;2023-02-12T17:30:20;13.00;;;5.30;;
68509;SDS011;55512;50.102;19.958;2023-02-12T17:32:46;14.20;;;6.10;;